Terminal Aerodrome Forecast
Issued by NWS

Home | Current Version | Previous Version | Text Only | Print | Product List | Glossary Off
Versions: 1 2 3 4 5 6 7 8 9 10 11 12 13 14 15 16 17 18

000
FTUS43 KTOP 012300
TAFMHK
TAF
KMHK 012323Z 0200/0224 07008KT P6SM VCTS BKN040CB
      TEMPO 0200/0201 3SM TSRA OVC025CB
     FM020600 04007KT P6SM VCTS BKN035CB
      TEMPO 0208/0212 2SM TSRA BR OVC020CB
     FM021200 34010KT 4SM -TSRA BKN030CB
     FM021900 31012G20KT P6SM BKN020=

USA.gov is the U.S. government's official web portal to all federal, state and local government web resources and services.